Time,TemperatureF,DewpointF,PressureIn,WindDirection,WindDirectionDegrees,WindSpeedMPH,WindSpeedGustMPH,Humidity,HourlyPrecipIn,Conditions,Clouds,dailyrainin,SolarRadiationWatts/m^2,SoftwareType,DateUTC
2013-01-26 00:08:00,51.1,33.4,29.61,NNE,22,0.0,0.0,51,0.00,,,-99.99,0.0,Linux-Irox,2013-01-26 08:08:00,
2013-01-26 00:18:00,50.7,33.1,29.60,WNW,292,0.0,0.0,51,0.00,,,-99.99,0.0,Linux-Irox,2013-01-26 08:18:00,
2013-01-26 00:28:00,50.4,32.7,29.60,NNW,337,0.0,0.0,51,0.00,,,-99.99,0.0,Linux-Irox,2013-01-26 08:28:00,
2013-01-26 00:38:00,50.7,33.4,29.61,NE,45,0.0,0.0,52,0.00,,,-99.99,0.0,Linux-Irox,2013-01-26 08:38:00,
2013-01-26 00:48:00,50.7,33.4,29.61,East,90,0.0,0.0,52,0.00,,,-99.99,0.0,Linux-Irox,2013-01-26 08:48:00,
2013-01-26 00:58:00,50.0,32.7,29.60,ENE,67,0.0,0.0,52,0.00,,,-99.99,0.0,Linux-Irox,2013-01-26 08:58:00,
2013-01-26 01:08:00,49.8,32.9,29.60,NNE,22,0.0,0.0,53,0.00,,,-99.99,0.0,Linux-Irox,2013-01-26 09:08:00,
2013-01-26 01:18:00,49.3,32.0,29.60,NNE,22,0.0,0.0,52,0.00,,,-99.99,0.0,Linux-Irox,2013-01-26 09:18:00,
2013-01-26 01:28:00,49.3,32.0,29.60,NE,45,0.0,0.0,52,0.00,,,-99.99,0.0,Linux-Irox,2013-01-26 09:28:00,
2013-01-26 01:38:00,50.0,32.7,29.60,NNE,22,0.0,0.0,52,0.00,,,-99.99,0.0,Linux-Irox,2013-01-26 09:38:00,
2013-01-26 01:48:00,50.2,32.5,29.60,ENE,67,0.0,0.0,51,0.00,,,-99.99,0.0,Linux-Irox,2013-01-26 09:48:00,
2013-01-26 01:58:00,50.2,32.5,29.59,NNE,22,0.0,0.0,51,0.00,,,-99.99,0.0,Linux-Irox,2013-01-26 09:58:00,
2013-01-26 02:08:00,50.4,33.1,29.59,NNW,337,0.0,0.0,52,0.00,,,-99.99,0.0,Linux-Irox,2013-01-26 10:08:00,
2013-01-26 02:18:00,50.5,33.3,29.59,West,270,0.0,0.0,52,0.00,,,-99.99,0.0,Linux-Irox,2013-01-26 10:18:00,
2013-01-26 02:28:00,50.2,32.9,29.59,NNE,22,0.0,0.0,52,0.00,,,-99.99,0.0,Linux-Irox,2013-01-26 10:28:00,
2013-01-26 02:38:00,50.5,33.3,29.59,NE,45,0.0,0.0,52,0.00,,,-99.99,0.0,Linux-Irox,2013-01-26 10:38:00,
2013-01-26 02:48:00,50.5,33.3,29.59,NNE,22,0.0,0.0,52,0.00,,,-99.99,0.0,Linux-Irox,2013-01-26 10:48:00,
2013-01-26 02:58:00,50.0,32.4,29.59,NE,45,0.0,0.0,51,0.00,,,-99.99,0.0,Linux-Irox,2013-01-26 10:58:00,
2013-01-26 03:08:00,50.0,32.7,29.59,WNW,292,0.2,0.0,52,0.00,,,-99.99,0.0,Linux-Irox,2013-01-26 11:08:00,
2013-01-26 03:18:00,50.2,32.9,29.58,NNE,22,0.0,0.0,52,0.00,,,-99.99,0.0,Linux-Irox,2013-01-26 11:18:00,
2013-01-26 03:28:00,50.2,32.9,29.58,NW,315,0.0,0.0,52,0.00,,,-99.99,0.0,Linux-Irox,2013-01-26 11:28:00,
2013-01-26 03:38:00,49.8,32.5,29.58,NNE,22,0.0,0.0,52,0.00,,,-99.99,0.0,Linux-Irox,2013-01-26 11:38:00,
2013-01-26 03:48:00,49.5,31.8,29.58,NNE,22,0.0,0.0,51,0.00,,,-99.99,0.0,Linux-Irox,2013-01-26 11:48:00,
2013-01-26 03:58:00,49.1,31.5,29.57,NNE,22,0.0,0.0,51,0.00,,,-99.99,0.0,Linux-Irox,2013-01-26 11:58:00,
2013-01-26 04:08:00,48.7,31.1,29.57,NNE,22,0.0,0.0,51,0.00,,,-99.99,0.0,Linux-Irox,2013-01-26 12:08:00,
2013-01-26 04:18:00,48.7,31.1,29.58,NNE,22,0.0,0.0,51,0.00,,,-99.99,0.0,Linux-Irox,2013-01-26 12:18:00,
2013-01-26 04:28:00,49.1,31.5,29.58,NW,315,0.0,0.0,51,0.00,,,-99.99,0.0,Linux-Irox,2013-01-26 12:28:00,
2013-01-26 04:38:00,49.1,31.5,29.56,NNE,22,0.0,0.0,51,0.00,,,-99.99,0.0,Linux-Irox,2013-01-26 12:38:00,
2013-01-26 04:48:00,49.3,31.6,29.56,ENE,67,0.0,0.0,51,0.00,,,-99.99,0.0,Linux-Irox,2013-01-26 12:48:00,
2013-01-26 04:58:00,49.6,32.4,29.56,NNW,337,0.0,0.0,52,0.00,,,-99.99,0.0,Linux-Irox,2013-01-26 12:58:00,
2013-01-26 05:08:00,49.5,31.8,29.56,NNE,22,0.0,0.0,51,0.00,,,-99.99,0.0,Linux-Irox,2013-01-26 13:08:00,
2013-01-26 05:18:00,49.3,32.0,29.56,West,270,0.0,0.0,52,0.00,,,-99.99,0.0,Linux-Irox,2013-01-26 13:18:00,
2013-01-26 05:28:00,49.3,31.6,29.56,NNE,22,0.0,0.0,51,0.00,,,-99.99,0.0,Linux-Irox,2013-01-26 13:28:00,
2013-01-26 05:38:00,49.8,32.5,29.56,North,0,0.0,0.0,52,0.00,,,-99.99,0.0,Linux-Irox,2013-01-26 13:38:00,
2013-01-26 05:48:00,49.8,32.5,29.56,NW,315,0.0,0.0,52,0.00,,,-99.99,0.0,Linux-Irox,2013-01-26 13:48:00,
2013-01-26 05:58:00,50.0,32.4,29.56,NNE,22,0.0,0.0,51,0.00,,,-99.99,0.0,Linux-Irox,2013-01-26 13:58:00,
2013-01-26 06:08:00,50.2,32.9,29.56,NNW,337,0.0,0.0,52,0.00,,,-99.99,0.0,Linux-Irox,2013-01-26 14:08:00,
2013-01-26 06:18:00,50.5,33.3,29.56,NNE,22,0.0,0.0,52,0.00,,,-99.99,0.0,Linux-Irox,2013-01-26 14:18:00,
2013-01-26 06:28:00,50.5,33.3,29.56,NW,315,0.0,0.0,52,0.00,,,-99.99,0.0,Linux-Irox,2013-01-26 14:28:00,
2013-01-26 06:38:00,50.5,33.3,29.56,NNW,337,0.0,0.0,52,0.00,,,-99.99,0.0,Linux-Irox,2013-01-26 14:38:00,
2013-01-26 06:48:00,50.5,32.9,29.56,NNE,22,0.0,0.0,51,0.00,,,-99.99,0.0,Linux-Irox,2013-01-26 14:48:00,
2013-01-26 06:58:00,50.5,33.3,29.56,East,90,0.0,0.0,52,0.00,,,-99.99,0.0,Linux-Irox,2013-01-26 14:58:00,
2013-01-26 07:08:00,50.5,32.9,29.56,NNE,22,0.0,0.0,51,0.00,,,-99.99,0.0,Linux-Irox,2013-01-26 15:08:00,
2013-01-26 07:18:00,50.7,33.4,29.56,North,0,0.0,0.0,52,0.00,,,-99.99,0.0,Linux-Irox,2013-01-26 15:18:00,
2013-01-26 07:28:00,50.9,33.6,29.56,NNW,337,0.0,0.0,52,0.00,,,-99.99,0.0,Linux-Irox,2013-01-26 15:28:00,
2013-01-26 07:38:00,50.9,33.6,29.56,NW,315,0.0,0.0,52,0.00,,,-99.99,0.0,Linux-Irox,2013-01-26 15:38:00,
2013-01-26 07:48:00,50.9,33.6,29.56,ENE,67,0.0,0.0,52,0.00,,,-99.99,0.0,Linux-Irox,2013-01-26 15:48:00,
2013-01-26 07:58:00,51.1,33.4,29.54,NNE,22,0.0,0.0,51,0.00,,,-99.99,0.0,Linux-Irox,2013-01-26 15:58:00,
2013-01-26 08:08:00,51.3,33.6,29.54,NNW,337,0.0,0.0,51,0.00,,,-99.99,0.0,Linux-Irox,2013-01-26 16:08:00,
2013-01-26 08:18:00,51.4,33.8,29.55,SW,225,0.0,0.0,51,0.00,,,-99.99,0.0,Linux-Irox,2013-01-26 16:18:00,
2013-01-26 08:28:00,51.4,33.4,29.55,WSW,247,0.2,2.5,50,0.00,,,-99.99,0.0,Linux-Irox,2013-01-26 16:28:00,
2013-01-26 08:38:00,51.3,33.3,29.55,ENE,67,0.4,0.0,50,0.00,,,-99.99,0.0,Linux-Irox,2013-01-26 16:38:00,
2013-01-26 08:48:00,51.3,33.3,29.55,NW,315,0.2,0.0,50,0.00,,,-99.99,0.0,Linux-Irox,2013-01-26 16:48:00,
2013-01-26 08:58:00,51.6,33.6,29.54,WSW,247,0.2,0.0,50,0.00,,,-99.99,0.0,Linux-Irox,2013-01-26 16:58:00,
2013-01-26 09:08:00,51.6,33.6,29.54,SW,225,0.4,0.0,50,0.00,,,-99.99,0.0,Linux-Irox,2013-01-26 17:08:00,
2013-01-26 09:16:00,51.8,33.4,29.54,WNW,292,2.0,0.0,49,0.00,,,-99.99,0.0,Linux-Irox,2013-01-26 17:16:00,
2013-01-26 09:18:00,51.8,33.4,29.55,South,180,0.7,1.8,49,0.00,,,-99.99,0.0,Linux-Irox,2013-01-26 17:18:00,
2013-01-26 09:28:00,51.8,33.4,29.55,NW,315,1.1,2.7,49,0.00,,,-99.99,0.0,Linux-Irox,2013-01-26 17:28:00,
2013-01-26 09:31:00,51.6,33.3,29.55,North,0,2.5,0.0,49,0.00,,,-99.99,0.0,Linux-Irox,2013-01-26 17:31:00,
2013-01-26 09:38:00,51.6,33.6,29.55,North,0,0.4,0.0,50,0.00,,,-99.99,0.0,Linux-Irox,2013-01-26 17:38:00,
2013-01-26 09:46:00,51.6,33.6,29.55,West,270,1.8,2.2,50,0.00,,,-99.99,0.0,Linux-Irox,2013-01-26 17:46:00,
2013-01-26 09:48:00,51.6,33.6,29.55,SSW,202,0.9,2.9,50,0.00,,,-99.99,0.0,Linux-Irox,2013-01-26 17:48:00,
2013-01-26 09:58:00,51.6,33.6,29.56,SW,225,0.9,2.0,50,0.00,,,-99.99,0.0,Linux-Irox,2013-01-26 17:58:00,
2013-01-26 10:01:00,51.6,33.6,29.56,WSW,247,2.5,3.8,50,0.00,,,-99.99,0.0,Linux-Irox,2013-01-26 18:01:00,
2013-01-26 10:08:00,51.6,33.6,29.56,WNW,292,1.1,1.6,50,0.00,,,-99.99,0.0,Linux-Irox,2013-01-26 18:08:00,
2013-01-26 10:16:00,51.6,33.6,29.56,West,270,2.0,4.5,50,0.00,,,-99.99,0.0,Linux-Irox,2013-01-26 18:16:00,
2013-01-26 10:18:00,51.6,33.6,29.56,WSW,247,1.3,4.7,50,0.00,,,-99.99,0.0,Linux-Irox,2013-01-26 18:18:00,
2013-01-26 10:28:00,51.4,33.4,29.56,WSW,247,2.2,2.2,50,0.00,,,-99.99,0.0,Linux-Irox,2013-01-26 18:28:00,
2013-01-26 10:31:00,51.4,33.4,29.56,West,270,3.8,3.8,50,0.00,,,-99.99,0.0,Linux-Irox,2013-01-26 18:31:00,
2013-01-26 10:38:00,51.6,33.6,29.56,West,270,1.3,1.3,50,0.00,,,-99.99,0.0,Linux-Irox,2013-01-26 18:38:00,
2013-01-26 10:46:00,51.6,33.3,29.56,SSW,202,3.3,3.8,49,0.00,,,-99.99,0.0,Linux-Irox,2013-01-26 18:46:00,
2013-01-26 10:48:00,51.8,33.4,29.56,ESE,112,1.3,0.0,49,0.00,,,-99.99,0.0,Linux-Irox,2013-01-26 18:48:00,
2013-01-26 10:58:00,52.3,33.6,29.55,WSW,247,0.4,1.1,48,0.00,,,-99.99,0.0,Linux-Irox,2013-01-26 18:58:00,
2013-01-26 11:01:00,52.3,33.6,29.55,SSW,202,1.3,4.7,48,0.00,,,-99.99,0.0,Linux-Irox,2013-01-26 19:01:00,
2013-01-26 11:08:00,52.7,33.6,29.55,NW,315,1.3,2.7,47,0.00,,,-99.99,0.0,Linux-Irox,2013-01-26 19:08:00,
2013-01-26 11:16:00,53.2,34.2,29.55,West,270,3.3,8.3,47,0.00,,,-99.99,0.0,Linux-Irox,2013-01-26 19:16:00,
2013-01-26 11:18:00,53.4,34.3,29.54,WNW,292,1.6,2.7,47,0.00,,,-99.99,0.0,Linux-Irox,2013-01-26 19:18:00,
2013-01-26 11:28:00,53.8,34.3,29.54,South,180,1.3,1.3,46,0.00,,,-99.99,0.0,Linux-Irox,2013-01-26 19:28:00,
2013-01-26 11:31:00,54.0,34.2,29.54,West,270,2.5,3.1,45,0.00,,,-99.99,0.0,Linux-Irox,2013-01-26 19:31:00,
2013-01-26 11:38:00,53.8,34.0,29.54,West,270,0.9,0.0,45,0.00,,,-99.99,0.0,Linux-Irox,2013-01-26 19:38:00,
2013-01-26 11:46:00,52.9,33.1,29.54,NE,45,2.2,2.2,45,0.00,,,-99.99,0.0,Linux-Irox,2013-01-26 19:46:00,
2013-01-26 11:48:00,52.7,32.9,29.54,SW,225,1.1,1.1,45,0.00,,,-99.99,0.0,Linux-Irox,2013-01-26 19:48:00,
2013-01-26 11:58:00,52.3,32.5,29.53,SE,135,0.9,1.8,45,0.00,,,-99.99,0.0,Linux-Irox,2013-01-26 19:58:00,
2013-01-26 12:01:00,52.2,32.4,29.53,East,90,1.8,0.0,45,0.00,,,-99.99,0.0,Linux-Irox,2013-01-26 20:01:00,
2013-01-26 12:08:00,52.2,32.4,29.53,WSW,247,0.7,1.1,45,0.00,,,-99.99,0.0,Linux-Irox,2013-01-26 20:08:00,
2013-01-26 12:16:00,51.8,31.6,29.53,WSW,247,3.8,7.1,44,0.00,,,-99.99,0.0,Linux-Irox,2013-01-26 20:16:00,
2013-01-26 12:18:00,51.8,31.6,29.52,West,270,1.8,1.8,44,0.00,,,-99.99,0.0,Linux-Irox,2013-01-26 20:18:00,
2013-01-26 12:28:00,51.6,31.8,29.52,WSW,247,1.6,3.8,45,0.00,,,-99.99,0.0,Linux-Irox,2013-01-26 20:28:00,
2013-01-26 12:31:00,51.6,31.5,29.52,NNE,22,3.1,0.0,44,0.00,,,-99.99,0.0,Linux-Irox,2013-01-26 20:31:00,
2013-01-26 12:38:00,51.3,31.1,29.52,WSW,247,2.2,2.5,44,0.00,,,-99.99,0.0,Linux-Irox,2013-01-26 20:38:00,
2013-01-26 12:46:00,50.9,30.7,29.52,West,270,6.0,9.6,44,0.00,,,-99.99,0.0,Linux-Irox,2013-01-26 20:46:00,
2013-01-26 12:48:00,50.7,30.6,29.52,WSW,247,3.1,3.1,44,0.00,,,-99.99,0.0,Linux-Irox,2013-01-26 20:48:00,
2013-01-26 12:58:00,50.4,30.6,29.52,WSW,247,3.3,3.3,45,0.00,,,-99.99,0.0,Linux-Irox,2013-01-26 20:58:00,
2013-01-26 13:01:00,50.0,30.2,29.52,WSW,247,7.4,7.4,45,0.00,,,-99.99,0.0,Linux-Irox,2013-01-26 21:01:00,
2013-01-26 13:08:00,49.8,30.0,29.52,WSW,247,3.6,3.6,45,0.00,,,-99.99,0.0,Linux-Irox,2013-01-26 21:08:00,
2013-01-26 13:16:00,49.6,29.5,29.52,East,90,4.5,4.5,44,0.00,,,-99.99,0.0,Linux-Irox,2013-01-26 21:16:00,
2013-01-26 13:18:00,49.8,29.7,29.52,WSW,247,1.8,1.8,44,0.00,,,-99.99,0.0,Linux-Irox,2013-01-26 21:18:00,
2013-01-26 13:28:00,49.8,29.7,29.52,WSW,247,1.6,3.1,44,0.00,,,-99.99,0.0,Linux-Irox,2013-01-26 21:28:00,
2013-01-26 13:31:00,50.2,30.0,29.52,NW,315,3.3,3.3,44,0.00,,,-99.99,0.0,Linux-Irox,2013-01-26 21:31:00,
2013-01-26 13:38:00,50.4,30.2,29.52,West,270,0.7,0.0,44,0.00,,,-99.99,0.0,Linux-Irox,2013-01-26 21:38:00,
2013-01-26 13:46:00,50.0,29.8,29.52,NE,45,1.3,2.2,44,0.00,,,-99.99,0.0,Linux-Irox,2013-01-26 21:46:00,
2013-01-26 13:48:00,49.8,29.7,29.52,SSE,157,0.7,1.6,44,0.00,,,-99.99,0.0,Linux-Irox,2013-01-26 21:48:00,
2013-01-26 13:58:00,49.8,30.0,29.51,SE,135,1.1,2.9,45,0.00,,,-99.99,0.0,Linux-Irox,2013-01-26 21:58:00,
2013-01-26 14:01:00,50.5,30.4,29.51,NW,315,2.0,2.9,44,0.00,,,-99.99,0.0,Linux-Irox,2013-01-26 22:01:00,
2013-01-26 14:08:00,51.3,30.7,29.51,WSW,247,1.3,2.7,43,0.00,,,-99.99,0.0,Linux-Irox,2013-01-26 22:08:00,
2013-01-26 14:16:00,51.3,30.4,29.51,WSW,247,3.3,3.3,42,0.00,,,-99.99,0.0,Linux-Irox,2013-01-26 22:16:00,
2013-01-26 14:18:00,51.4,30.6,29.51,East,90,1.6,3.6,42,0.00,,,-99.99,0.0,Linux-Irox,2013-01-26 22:18:00,
2013-01-26 14:28:00,51.4,29.5,29.51,NNE,22,2.0,3.6,39,0.00,,,-99.99,0.0,Linux-Irox,2013-01-26 22:28:00,
2013-01-26 14:31:00,52.0,30.0,29.51,ENE,67,4.5,0.0,39,0.00,,,-99.99,0.0,Linux-Irox,2013-01-26 22:31:00,
2013-01-26 14:38:00,51.6,29.7,29.51,SE,135,2.2,4.7,39,0.00,,,-99.99,0.0,Linux-Irox,2013-01-26 22:38:00,
2013-01-26 14:46:00,51.3,29.3,29.51,SE,135,4.2,10.0,39,0.00,,,-99.99,0.0,Linux-Irox,2013-01-26 22:46:00,
2013-01-26 14:48:00,51.3,29.3,29.51,SSE,157,1.8,1.8,39,0.00,,,-99.99,0.0,Linux-Irox,2013-01-26 22:48:00,
2013-01-26 14:58:00,50.4,28.4,29.51,SW,225,0.9,2.0,39,0.00,,,-99.99,0.0,Linux-Irox,2013-01-26 22:58:00,
2013-01-26 15:01:00,50.4,28.4,29.51,South,180,1.1,0.0,39,0.00,,,-99.99,0.0,Linux-Irox,2013-01-26 23:01:00,
2013-01-26 15:08:00,50.5,28.6,29.51,WSW,247,1.6,2.2,39,0.00,,,-99.99,0.0,Linux-Irox,2013-01-26 23:08:00,
2013-01-26 15:16:00,50.7,28.4,29.51,West,270,3.6,7.1,38,0.00,,,-99.99,0.0,Linux-Irox,2013-01-26 23:16:00,
2013-01-26 15:18:00,50.9,28.6,29.52,WNW,292,1.6,1.6,38,0.00,,,-99.99,0.0,Linux-Irox,2013-01-26 23:18:00,
2013-01-26 15:28:00,50.9,28.2,29.52,WNW,292,1.3,2.9,37,0.00,,,-99.99,0.0,Linux-Irox,2013-01-26 23:28:00,
2013-01-26 15:31:00,50.9,28.2,29.52,WSW,247,3.3,13.4,37,0.00,,,-99.99,0.0,Linux-Irox,2013-01-26 23:31:00,
2013-01-26 15:38:00,50.9,27.9,29.51,WNW,292,2.5,2.5,36,0.00,,,-99.99,0.0,Linux-Irox,2013-01-26 23:38:00,
2013-01-26 15:46:00,50.4,27.7,29.51,NW,315,2.9,0.0,37,0.00,,,-99.99,0.0,Linux-Irox,2013-01-26 23:46:00,
2013-01-26 15:48:00,50.2,27.9,29.51,South,180,0.9,1.6,38,0.00,,,-99.99,0.0,Linux-Irox,2013-01-26 23:48:00,
2013-01-26 15:58:00,50.7,28.0,29.51,WSW,247,0.9,4.2,37,0.00,,,-99.99,0.0,Linux-Irox,2013-01-26 23:58:00,
2013-01-26 16:02:00,51.6,28.6,29.51,South,180,2.2,0.0,36,0.00,,,-99.99,0.0,Linux-Irox,2013-01-27 00:02:00,
2013-01-26 16:08:00,51.3,27.5,29.51,WSW,247,1.8,9.4,34,0.00,,,-99.99,0.0,Linux-Irox,2013-01-27 00:08:00,
2013-01-26 16:16:00,49.3,24.4,29.51,SSE,157,6.7,6.7,31,0.00,,,-99.99,0.0,Linux-Irox,2013-01-27 00:16:00,
2013-01-26 16:18:00,49.3,24.4,29.51,West,270,2.9,3.8,31,0.00,,,-99.99,0.0,Linux-Irox,2013-01-27 00:18:00,
2013-01-26 16:28:00,47.8,20.1,29.51,North,0,1.8,1.8,23,0.00,,,-99.99,0.0,Linux-Irox,2013-01-27 00:28:00,
2013-01-26 16:31:00,47.7,19.6,29.51,SE,135,4.2,4.2,22,0.00,,,-99.99,0.0,Linux-Irox,2013-01-27 00:31:00,
2013-01-26 16:38:00,47.3,19.6,29.53,NW,315,1.6,4.7,23,0.00,,,-99.99,0.0,Linux-Irox,2013-01-27 00:38:00,
2013-01-26 16:46:00,46.8,19.0,29.53,South,180,2.9,2.9,23,0.00,,,-99.99,0.0,Linux-Irox,2013-01-27 00:46:00,
2013-01-26 16:48:00,46.6,18.9,29.53,SW,225,1.1,1.6,23,0.00,,,-99.99,0.0,Linux-Irox,2013-01-27 00:48:00,
2013-01-26 16:58:00,46.0,18.7,29.53,NW,315,0.9,0.0,24,0.00,,,-99.99,0.0,Linux-Irox,2013-01-27 00:58:00,
2013-01-26 17:01:00,45.7,18.0,29.53,WSW,247,1.8,3.1,23,0.00,,,-99.99,0.0,Linux-Irox,2013-01-27 01:01:00,
2013-01-26 17:08:00,45.3,18.0,29.53,NNW,337,0.7,0.0,24,0.00,,,-99.99,0.0,Linux-Irox,2013-01-27 01:08:00,
2013-01-26 17:16:00,44.8,17.8,29.53,NNE,22,0.7,0.0,25,0.00,,,-99.99,0.0,Linux-Irox,2013-01-27 01:16:00,
2013-01-26 17:18:00,44.8,17.4,29.53,ENE,67,0.0,0.0,24,0.00,,,-99.99,0.0,Linux-Irox,2013-01-27 01:18:00,
2013-01-26 17:28:00,43.9,17.2,29.53,ENE,67,0.0,0.0,26,0.00,,,-99.99,0.0,Linux-Irox,2013-01-27 01:28:00,
2013-01-26 17:31:00,43.3,17.1,29.53,NNE,22,0.0,0.0,27,0.00,,,-99.99,0.0,Linux-Irox,2013-01-27 01:31:00,
2013-01-26 17:38:00,42.8,16.5,29.53,NNE,22,0.0,0.0,27,0.00,,,-99.99,0.0,Linux-Irox,2013-01-27 01:38:00,
2013-01-26 17:46:00,42.3,16.7,29.53,NE,45,0.0,0.0,29,0.00,,,-99.99,0.0,Linux-Irox,2013-01-27 01:46:00,
2013-01-26 17:48:00,42.1,16.5,29.53,NNE,22,0.0,0.0,29,0.00,,,-99.99,0.0,Linux-Irox,2013-01-27 01:48:00,
2013-01-26 17:58:00,41.5,16.3,29.54,ENE,67,0.0,0.0,30,0.00,,,-99.99,0.0,Linux-Irox,2013-01-27 01:58:00,
2013-01-26 18:01:00,41.4,16.2,29.54,NNW,337,0.0,0.0,30,0.00,,,-99.99,0.0,Linux-Irox,2013-01-27 02:01:00,
2013-01-26 18:08:00,41.2,16.0,29.54,ENE,67,0.0,0.0,30,0.00,,,-99.99,0.0,Linux-Irox,2013-01-27 02:08:00,
2013-01-26 18:16:00,41.2,16.0,29.54,ENE,67,0.0,0.0,30,0.00,,,-99.99,0.0,Linux-Irox,2013-01-27 02:16:00,
2013-01-26 18:18:00,41.2,16.0,29.55,NNE,22,0.0,0.0,30,0.00,,,-99.99,0.0,Linux-Irox,2013-01-27 02:18:00,
2013-01-26 18:28:00,41.2,16.0,29.55,NE,45,0.0,0.0,30,0.00,,,-99.99,0.0,Linux-Irox,2013-01-27 02:28:00,
2013-01-26 18:31:00,41.2,16.0,29.55,NE,45,0.0,0.0,30,0.00,,,-99.99,0.0,Linux-Irox,2013-01-27 02:31:00,
2013-01-26 18:38:00,41.2,16.3,29.55,ENE,67,0.0,0.0,31,0.00,,,-99.99,0.0,Linux-Irox,2013-01-27 02:38:00,
2013-01-26 18:46:00,41.5,16.7,29.55,West,270,0.0,0.0,31,0.00,,,-99.99,0.0,Linux-Irox,2013-01-27 02:46:00,
2013-01-26 18:48:00,41.4,16.5,29.55,ENE,67,0.0,0.0,31,0.00,,,-99.99,0.0,Linux-Irox,2013-01-27 02:48:00,
2013-01-26 18:58:00,41.5,17.1,29.54,NE,45,0.0,0.0,32,0.00,,,-99.99,0.0,Linux-Irox,2013-01-27 02:58:00,
2013-01-26 19:01:00,41.7,17.2,29.54,ENE,67,0.0,0.0,32,0.00,,,-99.99,0.0,Linux-Irox,2013-01-27 03:01:00,
2013-01-26 19:08:00,42.3,18.1,29.54,NNE,22,0.0,0.0,33,0.00,,,-99.99,0.0,Linux-Irox,2013-01-27 03:08:00,
2013-01-26 19:16:00,42.6,18.5,29.54,SW,225,0.0,0.0,33,0.00,,,-99.99,0.0,Linux-Irox,2013-01-27 03:16:00,
2013-01-26 19:18:00,42.6,18.5,29.54,NNE,22,0.0,0.0,33,0.00,,,-99.99,0.0,Linux-Irox,2013-01-27 03:18:00,
2013-01-26 19:28:00,42.6,18.5,29.54,ENE,67,0.0,0.0,33,0.00,,,-99.99,0.0,Linux-Irox,2013-01-27 03:28:00,
2013-01-26 19:31:00,42.8,19.4,29.54,North,0,0.0,0.0,35,0.00,,,-99.99,0.0,Linux-Irox,2013-01-27 03:31:00,
2013-01-26 19:38:00,42.4,18.3,29.54,NNW,337,0.0,0.0,33,0.00,,,-99.99,0.0,Linux-Irox,2013-01-27 03:38:00,
2013-01-26 19:46:00,42.1,18.3,29.54,ENE,67,0.0,0.0,34,0.00,,,-99.99,0.0,Linux-Irox,2013-01-27 03:46:00,
2013-01-26 19:48:00,42.1,18.3,29.54,NE,45,0.0,0.0,34,0.00,,,-99.99,0.0,Linux-Irox,2013-01-27 03:48:00,
2013-01-26 19:58:00,41.9,17.8,29.55,WNW,292,0.0,0.0,33,0.00,,,-99.99,0.0,Linux-Irox,2013-01-27 03:58:00,
2013-01-26 20:01:00,41.7,18.0,29.55,NE,45,0.0,0.0,34,0.00,,,-99.99,0.0,Linux-Irox,2013-01-27 04:01:00,
2013-01-26 20:08:00,41.7,18.3,29.55,WNW,292,0.2,1.8,35,0.00,,,-99.99,0.0,Linux-Irox,2013-01-27 04:08:00,
2013-01-26 20:16:00,41.9,18.5,29.55,ENE,67,0.7,0.0,35,0.00,,,-99.99,0.0,Linux-Irox,2013-01-27 04:16:00,
2013-01-26 20:18:00,41.9,18.5,29.55,WNW,292,0.2,0.0,35,0.00,,,-99.99,0.0,Linux-Irox,2013-01-27 04:18:00,
2013-01-26 20:28:00,41.7,18.7,29.55,NW,315,0.0,0.0,36,0.00,,,-99.99,0.0,Linux-Irox,2013-01-27 04:28:00,
2013-01-26 20:31:00,41.7,19.0,29.55,NNW,337,0.0,0.0,37,0.00,,,-99.99,0.0,Linux-Irox,2013-01-27 04:31:00,
2013-01-26 20:38:00,41.7,19.0,29.54,WNW,292,0.0,0.0,37,0.00,,,-99.99,0.0,Linux-Irox,2013-01-27 04:38:00,
2013-01-26 20:46:00,41.5,18.9,29.54,NW,315,0.0,0.0,37,0.00,,,-99.99,0.0,Linux-Irox,2013-01-27 04:46:00,
2013-01-26 20:48:00,41.4,18.7,29.54,West,270,0.2,2.5,37,0.00,,,-99.99,0.0,Linux-Irox,2013-01-27 04:48:00,
2013-01-26 20:58:00,41.4,19.0,29.55,WSW,247,0.7,0.0,38,0.00,,,-99.99,0.0,Linux-Irox,2013-01-27 04:58:00,
2013-01-26 21:02:00,41.4,19.0,29.55,WSW,247,1.1,0.0,38,0.00,,,-99.99,0.0,Linux-Irox,2013-01-27 05:02:00,
2013-01-26 21:08:00,41.5,19.2,29.55,ESE,112,0.4,0.0,38,0.00,,,-99.99,0.0,Linux-Irox,2013-01-27 05:08:00,
2013-01-26 21:17:00,42.1,19.8,29.55,ENE,67,1.1,0.0,38,0.00,,,-99.99,0.0,Linux-Irox,2013-01-27 05:17:00,
2013-01-26 21:18:00,42.1,19.4,29.55,West,270,0.2,0.0,37,0.00,,,-99.99,0.0,Linux-Irox,2013-01-27 05:18:00,
2013-01-26 21:28:00,41.9,19.6,29.55,ENE,67,0.0,0.0,38,0.00,,,-99.99,0.0,Linux-Irox,2013-01-27 05:28:00,
2013-01-26 21:38:00,41.9,19.2,29.56,NNW,337,0.0,0.0,37,0.00,,,-99.99,0.0,Linux-Irox,2013-01-27 05:38:00,
2013-01-26 21:48:00,41.9,19.6,29.56,SE,135,0.0,0.0,38,0.00,,,-99.99,0.0,Linux-Irox,2013-01-27 05:48:00,
2013-01-26 21:58:00,42.3,19.6,29.56,NNE,22,0.2,0.0,37,0.00,,,-99.99,0.0,Linux-Irox,2013-01-27 05:58:00,
2013-01-26 22:08:00,41.9,18.9,29.56,SW,225,0.2,0.0,36,0.00,,,-99.99,0.0,Linux-Irox,2013-01-27 06:08:00,
2013-01-26 22:18:00,41.5,18.9,29.56,NW,315,0.0,0.0,37,0.00,,,-99.99,0.0,Linux-Irox,2013-01-27 06:18:00,
2013-01-26 22:28:00,41.9,19.2,29.56,SW,225,0.0,0.0,37,0.00,,,-99.99,0.0,Linux-Irox,2013-01-27 06:28:00,
2013-01-26 22:38:00,42.1,19.4,29.57,SW,225,0.0,0.0,37,0.00,,,-99.99,0.0,Linux-Irox,2013-01-27 06:38:00,
2013-01-26 22:48:00,42.3,19.6,29.57,NE,45,0.0,0.0,37,0.00,,,-99.99,0.0,Linux-Irox,2013-01-27 06:48:00,
2013-01-26 22:58:00,42.3,19.2,29.57,West,270,0.2,1.6,36,0.00,,,-99.99,0.0,Linux-Irox,2013-01-27 06:58:00,
2013-01-26 23:08:00,41.7,18.7,29.57,NNW,337,0.0,0.0,36,0.00,,,-99.99,0.0,Linux-Irox,2013-01-27 07:08:00,
2013-01-26 23:18:00,41.4,18.3,29.58,ESE,112,0.0,0.0,36,0.00,,,-99.99,0.0,Linux-Irox,2013-01-27 07:18:00,
2013-01-26 23:28:00,41.0,18.3,29.58,ESE,112,0.2,0.0,37,0.00,,,-99.99,0.0,Linux-Irox,2013-01-27 07:28:00,
2013-01-26 23:38:00,40.8,18.5,29.58,SSE,157,0.4,1.8,38,0.00,,,-99.99,0.0,Linux-Irox,2013-01-27 07:38:00,
2013-01-26 23:48:00,40.5,18.5,29.58,NNW,337,0.4,1.1,39,0.00,,,-99.99,0.0,Linux-Irox,2013-01-27 07:48:00,
2013-01-26 23:58:00,40.1,18.5,29.57,SE,135,0.4,1.6,40,0.00,,,-99.99,0.0,Linux-Irox,2013-01-27 07:58:00,